ADDS METAR Data INFO
IDs: Format: Raw Decoded Include TAF

Data at: 2112 UTC 20 Nov 2017

METAR for:KBEA (Beeville Muni, TX, US)
Text:KBEA 202055Z AUTO 16006KT 10SM OVC055 21/10 A3005 RMK AO2 T02060096
Temperature: 20.6°C ( 69°F)
Dewpoint: 9.6°C ( 49°F) [RH = 49%]
Pressure (altimeter):30.05 inches Hg (1017.7 mb)
Winds:from the SSE (160 degrees) at 7 MPH (6 knots; 3.1 m/s)
Visibility:10 or more sm (16+ km)
Ceiling:5500 feet AGL
Clouds: overcast cloud deck at 5500 feet AGL
QC Flag:automated observation with no human augmentation